createdAt,value
2023-05-10T00:04:35.090Z,12.63
2023-05-10T00:09:36.705Z,12.68
2023-05-10T00:14:38.287Z,12.56
2023-05-10T00:19:39.882Z,12.59
2023-05-10T00:24:41.468Z,12.56
2023-05-10T00:29:43.088Z,12.42
2023-05-10T00:34:44.699Z,12.28
2023-05-10T00:39:47.210Z,12.35
2023-05-10T00:44:49.023Z,12.25
2023-05-10T00:49:51.314Z,12.17
2023-05-10T00:54:53.777Z,12.06
2023-05-10T00:59:55.426Z,11.96
2023-05-10T01:04:57.149Z,11.79
2023-05-10T01:09:59.045Z,11.90
2023-05-10T01:15:02.554Z,12.03
2023-05-10T01:20:04.711Z,11.90
2023-05-10T01:25:27.737Z,11.85
2023-05-10T01:30:48.009Z,11.67
2023-05-10T01:36:18.677Z,11.69
2023-05-10T01:41:20.214Z,11.60
2023-05-10T01:46:34.097Z,11.41
2023-05-10T01:51:52.660Z,11.44
2023-05-10T01:57:01.135Z,11.54
2023-05-10T02:02:05.356Z,11.36
2023-05-10T02:07:07.987Z,11.43
2023-05-10T02:12:10.471Z,11.44
2023-05-10T02:17:12.890Z,11.29
2023-05-10T02:22:17.200Z,11.32
2023-05-10T02:27:21.022Z,11.25
2023-05-10T02:32:25.532Z,11.08
2023-05-10T02:37:28.415Z,11.31
2023-05-10T02:42:33.684Z,11.04
2023-05-10T02:47:35.506Z,10.94
2023-05-10T02:52:45.356Z,10.75
2023-05-10T02:57:55.010Z,10.89
2023-05-10T03:02:56.766Z,10.60
2023-05-10T03:07:58.623Z,10.66
2023-05-10T03:13:14.036Z,10.63
2023-05-10T03:18:24.338Z,10.59
2023-05-10T03:23:42.112Z,10.43
2023-05-10T03:28:45.354Z,10.44
2023-05-10T03:33:50.987Z,10.45
2023-05-10T03:38:57.972Z,10.43
2023-05-10T03:44:00.183Z,10.44
2023-05-10T03:49:01.879Z,10.25
2023-05-10T03:54:03.794Z,10.30
2023-05-10T03:59:08.426Z,10.45
2023-05-10T04:04:10.928Z,10.32
2023-05-10T04:09:12.841Z,10.47
2023-05-10T04:14:14.566Z,10.61
2023-05-10T04:19:16.163Z,10.59
2023-05-10T04:24:17.790Z,10.78
2023-05-10T04:29:19.446Z,10.93
2023-05-10T04:34:22.274Z,10.81
2023-05-10T04:39:23.909Z,11.07
2023-05-10T04:44:25.562Z,10.99
2023-05-10T04:49:27.194Z,11.44
2023-05-10T04:54:28.787Z,11.58
2023-05-10T04:59:32.718Z,11.72
2023-05-10T05:04:34.403Z,11.89
2023-05-10T05:09:36.071Z,12.14
2023-05-10T05:14:37.651Z,12.31
2023-05-10T05:19:39.334Z,12.48
2023-05-10T05:24:40.930Z,12.55
2023-05-10T05:29:42.528Z,12.71
2023-05-10T05:34:46.242Z,12.93
2023-05-10T05:39:48.261Z,13.00
2023-05-10T05:45:09.888Z,13.12
2023-05-10T05:50:11.657Z,13.52
2023-05-10T05:55:13.783Z,14.08
2023-05-10T06:00:15.698Z,14.53
2023-05-10T06:05:17.611Z,15.10
2023-05-10T06:10:19.472Z,15.41
2023-05-10T06:15:21.393Z,15.81
2023-05-10T06:20:23.005Z,16.30
2023-05-10T06:25:24.738Z,16.69
2023-05-10T06:30:30.489Z,16.77
2023-05-10T06:35:34.418Z,17.12
2023-05-10T06:40:36.952Z,17.27
2023-05-10T06:45:38.584Z,17.48
2023-05-10T06:50:40.231Z,17.56
2023-05-10T06:55:42.063Z,17.32
2023-05-10T07:00:44.771Z,17.69
2023-05-10T07:05:47.597Z,17.82
2023-05-10T07:10:49.237Z,17.60
2023-05-10T07:15:50.869Z,17.89
2023-05-10T07:20:52.630Z,18.09
2023-05-10T07:25:54.504Z,17.91
2023-05-10T07:30:56.297Z,18.18
2023-05-10T07:35:58.342Z,18.32
2023-05-10T07:40:59.915Z,18.77
2023-05-10T07:46:02.100Z,18.90
2023-05-10T07:51:03.750Z,19.14
2023-05-10T07:56:45.750Z,19.16
2023-05-10T08:01:47.448Z,19.48
2023-05-10T08:06:49.035Z,19.09
2023-05-10T08:11:51.686Z,19.13
2023-05-10T08:16:53.372Z,19.26
2023-05-10T08:21:56.576Z,19.46
2023-05-10T08:26:58.374Z,19.28
2023-05-10T08:31:59.963Z,19.49
2023-05-10T08:37:01.561Z,20.07
2023-05-10T08:42:05.568Z,19.91
2023-05-10T08:47:10.690Z,20.01
2023-05-10T08:52:15.573Z,20.09
2023-05-10T08:57:17.293Z,20.33
2023-05-10T09:02:19.889Z,20.61
2023-05-10T09:07:21.523Z,20.53
2023-05-10T09:12:24.052Z,20.86
2023-05-10T09:17:26.796Z,21.30
2023-05-10T09:22:28.535Z,21.34
2023-05-10T09:27:30.401Z,21.48
2023-05-10T09:32:42.487Z,22.08
2023-05-10T09:37:47.178Z,22.25
2023-05-10T09:42:57.533Z,22.25
2023-05-10T09:48:00.487Z,22.49
2023-05-10T09:53:04.498Z,22.85
2023-05-10T09:58:11.132Z,23.45
2023-05-10T10:03:18.017Z,23.19
2023-05-10T10:08:20.072Z,23.06
2023-05-10T10:13:21.925Z,22.89
2023-05-10T10:18:28.067Z,22.81
2023-05-10T10:23:30.100Z,22.85
2023-05-10T10:28:46.375Z,22.49
2023-05-10T10:34:00.383Z,22.77
2023-05-10T10:39:04.011Z,22.81
2023-05-10T10:50:28.731Z,22.78
2023-05-10T10:55:31.319Z,22.76
2023-05-10T11:00:36.196Z,23.02
2023-05-10T11:05:44.715Z,22.90
2023-05-10T11:10:53.368Z,22.75
2023-05-10T11:15:55.086Z,23.08
2023-05-10T11:21:00.864Z,23.37
2023-05-10T11:26:03.383Z,23.02
2023-05-10T11:31:05.463Z,23.59
2023-05-10T11:36:12.213Z,23.77
2023-05-10T11:41:14.655Z,23.52
2023-05-10T11:46:18.926Z,23.61
2023-05-10T11:51:22.268Z,23.29
2023-05-10T11:56:24.683Z,23.34
2023-05-10T12:01:28.020Z,23.46
2023-05-10T12:06:32.815Z,23.37
2023-05-10T12:11:44.662Z,23.30
2023-05-10T12:16:46.700Z,23.12
2023-05-10T12:21:53.480Z,22.89
2023-05-10T12:26:55.288Z,23.66
2023-05-10T12:32:01.314Z,23.22
2023-05-10T12:37:08.451Z,23.16
2023-05-10T12:42:11.557Z,22.81
2023-05-10T12:47:13.226Z,22.65
2023-05-10T12:52:16.914Z,22.70
2023-05-10T12:57:18.515Z,22.98
2023-05-10T13:02:21.049Z,22.62
2023-05-10T13:07:22.638Z,21.89
2023-05-10T13:12:25.310Z,21.89
2023-05-10T13:17:27.289Z,22.16
2023-05-10T13:22:39.731Z,22.36
2023-05-10T13:27:42.033Z,22.24
2023-05-10T13:32:43.647Z,22.34
2023-05-10T13:37:45.318Z,22.21
2023-05-10T13:42:46.953Z,22.40
2023-05-10T13:47:48.583Z,22.17
2023-05-10T13:52:50.436Z,22.56
2023-05-10T13:57:54.189Z,22.24
2023-05-10T14:02:55.883Z,21.90
2023-05-10T14:07:58.248Z,21.35
2023-05-10T14:13:00.083Z,20.99
2023-05-10T14:18:02.036Z,21.35
2023-05-10T14:23:04.154Z,21.82
2023-05-10T14:28:05.999Z,21.66
2023-05-10T14:33:08.786Z,21.43
2023-05-10T14:38:11.715Z,21.21
2023-05-10T14:43:13.376Z,21.23
2023-05-10T14:48:18.184Z,20.95
2023-05-10T14:53:19.757Z,20.86
2023-05-10T14:58:21.339Z,20.41
2023-05-10T15:03:23.555Z,20.29
2023-05-10T15:08:25.850Z,19.88
2023-05-10T15:13:27.488Z,20.05
2023-05-10T15:18:29.093Z,19.82
2023-05-10T15:23:30.952Z,20.04
2023-05-10T15:28:34.292Z,20.10
2023-05-10T15:33:38.998Z,19.82
2023-05-10T15:38:41.001Z,19.52
2023-05-10T15:43:42.662Z,19.37
2023-05-10T15:48:44.462Z,19.23
2023-05-10T15:54:00.416Z,19.08
2023-05-10T15:59:08.721Z,18.66
2023-05-10T16:04:10.350Z,18.70
2023-05-10T16:09:12.042Z,18.48
2023-05-10T16:14:13.731Z,18.45
2023-05-10T16:19:16.124Z,18.29
2023-05-10T16:24:17.919Z,18.13
2023-05-10T16:29:19.576Z,18.09
2023-05-10T16:34:24.205Z,18.09
2023-05-10T16:39:26.197Z,18.35
2023-05-10T16:44:28.286Z,18.05
2023-05-10T16:49:29.951Z,17.85
2023-05-10T16:54:31.524Z,17.96
2023-05-10T16:59:33.128Z,17.89
2023-05-10T17:04:34.998Z,17.99
2023-05-10T17:09:36.673Z,17.97
2023-05-10T17:14:38.768Z,17.92
2023-05-10T17:19:40.548Z,17.88
2023-05-10T17:24:42.188Z,17.75
2023-05-10T17:29:43.902Z,17.84
2023-05-10T17:34:45.493Z,17.28
2023-05-10T17:39:47.089Z,17.26
2023-05-10T17:44:48.682Z,17.25
2023-05-10T17:49:50.434Z,16.97
2023-05-10T17:54:52.424Z,17.13
2023-05-10T17:59:54.127Z,16.80
2023-05-10T18:04:59.046Z,16.97
2023-05-10T18:10:01.505Z,16.97
2023-05-10T18:15:03.279Z,16.72
2023-05-10T18:20:06.125Z,16.57
2023-05-10T18:25:08.242Z,16.37
2023-05-10T18:30:12.256Z,16.28
2023-05-10T18:35:14.361Z,16.39
2023-05-10T18:40:17.508Z,16.64
2023-05-10T18:45:23.292Z,16.40
2023-05-10T18:50:59.010Z,16.28
2023-05-10T18:55:59.547Z,16.26
2023-05-10T19:01:03.707Z,16.17
2023-05-10T19:06:05.313Z,16.09
2023-05-10T19:11:06.919Z,16.19
2023-05-10T19:16:14.810Z,16.22
2023-05-10T19:21:17.219Z,16.31
2023-05-10T19:26:19.384Z,16.24
2023-05-10T19:31:21.851Z,15.96
2023-05-10T19:36:23.609Z,16.21
2023-05-10T19:41:25.535Z,15.99
2023-05-10T19:46:27.654Z,15.95
2023-05-10T19:51:29.318Z,16.06
2023-05-10T19:56:31.084Z,15.72
2023-05-10T20:01:33.531Z,15.45
2023-05-10T20:06:35.860Z,15.41
2023-05-10T20:11:37.519Z,15.68
2023-05-10T20:16:39.272Z,15.43
2023-05-10T20:21:41.107Z,15.42
2023-05-10T20:26:42.795Z,14.94
2023-05-10T20:31:44.516Z,14.83
2023-05-10T20:36:46.195Z,15.06
2023-05-10T20:41:48.043Z,14.63
2023-05-10T20:46:49.703Z,14.55
2023-05-10T20:51:51.557Z,14.55
2023-05-10T20:56:53.389Z,14.50
2023-05-10T21:01:55.943Z,14.38
2023-05-10T21:06:57.722Z,14.23
2023-05-10T21:11:59.459Z,14.41
2023-05-10T21:17:01.480Z,14.52
2023-05-10T21:22:03.431Z,14.41
2023-05-10T21:27:05.083Z,14.10
2023-05-10T21:32:06.756Z,13.87
2023-05-10T21:37:08.440Z,13.83
2023-05-10T21:42:10.056Z,13.57
2023-05-10T21:47:11.713Z,13.78
2023-05-10T21:52:13.319Z,13.66
2023-05-10T21:57:14.987Z,13.49
2023-05-10T22:02:16.654Z,13.29
2023-05-10T22:07:18.494Z,13.37
2023-05-10T22:12:20.301Z,13.37
2023-05-10T22:17:21.933Z,13.18
2023-05-10T22:22:23.650Z,13.08
2023-05-10T22:27:25.241Z,13.05
2023-05-10T22:32:31.534Z,12.75
2023-05-10T22:37:33.224Z,12.76
2023-05-10T22:42:34.886Z,13.05
2023-05-10T22:47:36.599Z,12.98
2023-05-10T22:52:39.347Z,12.75
2023-05-10T22:57:41.029Z,13.00
2023-05-10T23:02:43.188Z,12.60
2023-05-10T23:07:44.866Z,12.57
2023-05-10T23:12:46.460Z,12.47
2023-05-10T23:17:48.121Z,12.46
2023-05-10T23:22:49.749Z,12.48
2023-05-10T23:27:51.532Z,12.52
2023-05-10T23:32:53.161Z,12.55
2023-05-10T23:37:55.078Z,13.00
2023-05-10T23:42:56.741Z,12.99
2023-05-10T23:47:58.446Z,13.01
2023-05-10T23:53:00.141Z,12.94
2023-05-10T23:58:01.743Z,12.87
